Time;durP1;ratioP1;P1;durP2;ratioP2;P2;SDS_P1;SDS_P2;PMS_P1;PMS_P2;Temp;Humidity;BMP_temperature;BMP_pressure;BME280_temperature;BME280_humidity;BME280_pressure;Samples;Min_cycle;Max_cycle;Signal;HPM_P1;HPM_P2
2023/09/25 00:00:33;;;;;;;4.88;3.05;;;14.20;99.90;;;;;;5017943;28;20181;-74
2023/09/25 00:03:00;;;;;;;3.10;2.53;;;14.30;99.90;;;;;;5020226;28;20678;-75
2023/09/25 00:05:27;;;;;;;4.88;2.80;;;14.30;99.90;;;;;;5018599;28;20219;-74
2023/09/25 00:07:53;;;;;;;3.75;3.00;;;14.20;99.90;;;;;;5020136;28;20287;-74
2023/09/25 00:10:19;;;;;;;4.38;3.22;;;14.10;99.90;;;;;;5017906;28;20216;-75
2023/09/25 00:12:44;;;;;;;3.42;2.70;;;14.20;99.90;;;;;;5019243;28;20283;-75
2023/09/25 00:15:10;;;;;;;4.15;3.30;;;14.10;99.90;;;;;;5018793;28;20742;-75
2023/09/25 00:17:38;;;;;;;5.97;3.58;;;14.10;99.90;;;;;;5020112;28;20209;-75
2023/09/25 00:20:04;;;;;;;5.25;3.35;;;14.10;99.90;;;;;;5021404;28;20271;-75
2023/09/25 00:22:33;;;;;;;5.20;3.28;;;14.00;99.90;;;;;;5022428;28;20605;-75
2023/09/25 00:24:58;;;;;;;5.47;3.30;;;14.00;99.90;;;;;;5023726;28;20300;-75
2023/09/25 00:27:24;;;;;;;5.68;3.58;;;14.00;99.90;;;;;;5024954;28;20219;-72
2023/09/25 00:29:50;;;;;;;4.82;3.38;;;14.00;99.90;;;;;;5022701;28;20288;-72
2023/09/25 00:32:16;;;;;;;4.82;3.28;;;13.90;99.90;;;;;;5021382;28;20715;-74
2023/09/25 00:34:42;;;;;;;5.03;3.33;;;13.90;99.90;;;;;;5023090;28;20291;-75
2023/09/25 00:37:07;;;;;;;4.60;3.53;;;13.90;99.90;;;;;;5024077;28;20232;-74
2023/09/25 00:39:33;;;;;;;5.60;4.00;;;13.80;99.90;;;;;;5025043;28;20212;-74
2023/09/25 00:41:59;;;;;;;5.18;3.35;;;13.80;99.90;;;;;;5029781;28;20224;-75
2023/09/25 00:44:25;;;;;;;4.72;3.13;;;13.80;99.90;;;;;;5022483;28;20213;-74
2023/09/25 00:46:51;;;;;;;4.70;3.35;;;13.80;99.90;;;;;;5023108;28;20200;-75
2023/09/25 00:49:17;;;;;;;5.55;3.58;;;13.70;99.90;;;;;;5023195;28;20226;-75
2023/09/25 00:51:44;;;;;;;4.35;3.45;;;13.70;99.90;;;;;;5022870;28;20636;-74
2023/09/25 00:54:15;;;;;;;7.63;3.78;;;13.70;99.90;;;;;;5024211;28;20208;-75
2023/09/25 00:56:41;;;;;;;4.88;3.65;;;13.60;99.90;;;;;;5021338;28;20595;-74
2023/09/25 00:59:07;;;;;;;6.63;3.63;;;13.60;99.90;;;;;;5022252;28;20211;-76
2023/09/25 01:01:34;;;;;;;5.65;3.50;;;13.60;99.90;;;;;;5021545;28;20299;-74
2023/09/25 01:04:00;;;;;;;4.45;3.40;;;13.60;99.90;;;;;;5023061;28;20248;-74
2023/09/25 01:06:26;;;;;;;6.15;4.43;;;13.70;99.90;;;;;;5024196;28;20662;-74
2023/09/25 01:08:51;;;;;;;4.60;3.35;;;13.50;99.90;;;;;;5020828;28;20212;-73
2023/09/25 01:11:17;;;;;;;5.20;3.38;;;13.50;99.90;;;;;;5022835;28;20220;-74
2023/09/25 01:13:42;;;;;;;6.88;3.67;;;13.50;99.90;;;;;;5021249;28;20205;-74
2023/09/25 01:16:08;;;;;;;9.80;4.45;;;13.50;99.90;;;;;;5023409;28;20679;-74
2023/09/25 01:18:34;;;;;;;5.80;3.88;;;13.50;99.90;;;;;;5021375;28;20192;-74
2023/09/25 01:21:03;;;;;;;4.72;3.55;;;13.40;99.90;;;;;;5024516;28;20208;-74
2023/09/25 01:23:29;;;;;;;5.20;3.67;;;13.40;99.90;;;;;;5019944;28;20292;-73
2023/09/25 01:25:54;;;;;;;4.82;3.60;;;13.40;99.90;;;;;;5022300;28;20295;-75
2023/09/25 01:28:20;;;;;;;9.85;4.05;;;13.30;99.90;;;;;;5020848;28;20204;-75
2023/09/25 01:30:45;;;;;;;6.72;3.55;;;13.30;99.90;;;;;;5020965;28;20177;-75
2023/09/25 01:33:11;;;;;;;6.25;4.03;;;13.20;99.90;;;;;;5020738;28;20205;-75
2023/09/25 01:35:37;;;;;;;5.30;3.65;;;13.20;99.90;;;;;;5022844;28;20216;-75
2023/09/25 01:38:06;;;;;;;4.55;3.67;;;13.30;99.90;;;;;;5020539;28;20225;-75
2023/09/25 01:40:32;;;;;;;5.50;3.70;;;13.30;99.90;;;;;;5022716;28;20678;-71
2023/09/25 01:42:57;;;;;;;7.60;4.45;;;13.20;99.90;;;;;;5021091;28;20224;-73
2023/09/25 01:45:23;;;;;;;8.88;4.22;;;13.20;99.90;;;;;;5024187;28;20180;-72
2023/09/25 01:47:53;;;;;;;6.75;4.18;;;13.20;99.90;;;;;;5020581;28;20217;-71
2023/09/25 01:50:21;;;;;;;6.82;4.03;;;13.20;99.90;;;;;;5023363;28;20212;-72
2023/09/25 01:52:50;;;;;;;5.50;4.07;;;13.20;99.90;;;;;;5020410;28;20282;-73
2023/09/25 01:55:16;;;;;;;7.78;3.47;;;13.20;99.90;;;;;;5023333;28;20220;-75
2023/09/25 01:57:42;;;;;;;4.90;3.92;;;13.20;99.90;;;;;;5020512;28;20623;-75
2023/09/25 02:00:09;;;;;;;4.38;3.70;;;13.10;99.90;;;;;;5023441;28;20686;-74
2023/09/25 02:02:40;;;;;;;6.93;3.83;;;13.00;99.90;;;;;;5018751;28;20217;-75
2023/09/25 02:05:06;;;;;;;5.05;3.70;;;13.00;99.90;;;;;;5018999;28;20204;-74
2023/09/25 02:07:32;;;;;;;5.88;4.00;;;13.00;99.90;;;;;;5020377;28;20612;-75
2023/09/25 02:09:59;;;;;;;5.25;4.25;;;13.00;99.90;;;;;;5016005;28;20216;-75
2023/09/25 02:12:25;;;;;;;6.32;4.18;;;13.00;99.90;;;;;;5022470;28;20242;-75
2023/09/25 02:14:54;;;;;;;6.10;4.30;;;13.00;99.90;;;;;;5013505;28;20208;-74
2023/09/25 02:17:20;;;;;;;6.18;4.15;;;13.00;99.90;;;;;;5016282;28;20222;-75
2023/09/25 02:19:46;;;;;;;5.97;4.22;;;12.90;99.90;;;;;;5020399;28;20279;-75
2023/09/25 02:22:12;;;;;;;7.40;4.67;;;12.90;99.90;;;;;;5020579;28;20645;-75
2023/09/25 02:24:39;;;;;;;5.45;4.25;;;12.90;99.90;;;;;;5019549;28;20657;-75
2023/09/25 02:27:05;;;;;;;5.70;4.60;;;12.90;99.90;;;;;;5022154;28;20666;-75
2023/09/25 02:29:30;;;;;;;6.28;4.82;;;12.90;99.90;;;;;;5020438;28;20200;-75
2023/09/25 02:31:56;;;;;;;7.93;4.83;;;13.00;99.90;;;;;;5020295;28;20205;-75
2023/09/25 02:34:22;;;;;;;8.57;4.03;;;12.90;99.90;;;;;;5022144;28;20201;-75
2023/09/25 02:36:48;;;;;;;6.63;4.72;;;12.90;99.90;;;;;;5019731;28;20193;-74
2023/09/25 02:39:14;;;;;;;6.43;4.97;;;12.80;99.90;;;;;;5023467;28;20650;-75
2023/09/25 02:41:41;;;;;;;7.18;4.50;;;12.80;99.90;;;;;;5017598;28;20216;-75
2023/09/25 02:44:07;;;;;;;11.80;4.80;;;12.70;99.90;;;;;;5022481;28;20277;-74
2023/09/25 02:46:33;;;;;;;7.50;4.80;;;12.80;99.90;;;;;;5016036;28;20239;-75
2023/09/25 02:48:58;;;;;;;7.80;4.32;;;12.80;99.90;;;;;;5019388;28;20244;-75
2023/09/25 02:51:24;;;;;;;8.57;4.38;;;12.80;99.90;;;;;;5019669;28;20275;-72
2023/09/25 02:53:52;;;;;;;7.80;4.43;;;12.80;99.90;;;;;;5018487;28;20205;-70
2023/09/25 02:56:18;;;;;;;7.53;4.65;;;12.80;99.90;;;;;;5021530;28;20709;-72
2023/09/25 02:58:44;;;;;;;8.48;4.75;;;12.70;99.90;;;;;;5020099;28;20212;-72
2023/09/25 03:01:09;;;;;;;6.63;4.68;;;12.70;99.90;;;;;;5019223;28;20201;-72
2023/09/25 03:03:35;;;;;;;8.15;4.97;;;12.70;99.90;;;;;;5019644;28;20223;-75
2023/09/25 03:06:01;;;;;;;6.93;4.68;;;12.70;99.90;;;;;;5020373;28;20558;-75
2023/09/25 03:08:26;;;;;;;10.25;5.43;;;12.80;99.90;;;;;;5020427;28;20208;-75
2023/09/25 03:10:52;;;;;;;8.05;4.90;;;12.80;99.90;;;;;;5019196;28;20635;-73
2023/09/25 03:13:18;;;;;;;8.17;5.17;;;12.70;99.90;;;;;;5022328;28;20211;-75
2023/09/25 03:15:44;;;;;;;6.68;4.68;;;12.60;99.90;;;;;;5018976;28;20197;-75
2023/09/25 03:18:11;;;;;;;5.50;4.10;;;12.60;99.90;;;;;;5018331;28;20172;-75
2023/09/25 03:20:38;;;;;;;7.80;4.67;;;12.60;99.90;;;;;;5018720;28;20282;-75
2023/09/25 03:23:04;;;;;;;9.07;5.00;;;12.60;99.90;;;;;;5018425;28;20208;-75
2023/09/25 03:25:34;;;;;;;7.20;5.07;;;12.50;99.90;;;;;;5021900;28;20679;-75
2023/09/25 03:28:00;;;;;;;7.87;4.53;;;12.60;99.90;;;;;;5018778;28;20220;-75
2023/09/25 03:30:26;;;;;;;5.60;4.40;;;12.60;99.90;;;;;;5022212;28;20184;-74
2023/09/25 03:32:54;;;;;;;8.43;4.80;;;12.60;99.90;;;;;;5019129;28;20215;-74
2023/09/25 03:35:21;;;;;;;6.20;4.87;;;12.60;99.90;;;;;;5020965;28;20809;-72
2023/09/25 03:37:46;;;;;;;6.80;4.30;;;12.60;99.90;;;;;;5019325;28;20283;-75
2023/09/25 03:40:13;;;;;;;6.93;4.83;;;12.60;99.90;;;;;;5019259;28;20288;-73
2023/09/25 03:42:39;;;;;;;7.40;4.82;;;12.60;99.90;;;;;;5019730;28;20690;-73
2023/09/25 03:45:05;;;;;;;9.50;5.27;;;12.60;99.90;;;;;;5019931;28;20169;-72
2023/09/25 03:47:31;;;;;;;9.13;4.50;;;12.60;99.90;;;;;;5018623;28;20602;-72
2023/09/25 03:49:56;;;;;;;8.47;4.80;;;12.60;99.90;;;;;;5020727;28;20208;-73
2023/09/25 03:52:23;;;;;;;7.23;5.00;;;12.60;99.90;;;;;;5020841;28;20216;-72
2023/09/25 03:54:49;;;;;;;6.03;4.57;;;12.60;99.90;;;;;;5016868;28;20438;-72
2023/09/25 03:57:14;;;;;;;6.70;4.13;;;12.50;99.90;;;;;;5022006;28;20279;-72
2023/09/25 03:59:40;;;;;;;6.40;4.87;;;12.50;99.90;;;;;;5018366;28;20287;-72
2023/09/25 04:02:05;;;;;;;8.68;4.90;;;12.50;99.90;;;;;;5017164;28;20717;-72
2023/09/25 04:04:31;;;;;;;8.20;4.70;;;12.40;99.90;;;;;;5019681;28;20211;-73
2023/09/25 04:06:57;;;;;;;6.63;4.70;;;12.40;99.90;;;;;;5018833;28;20901;-75
2023/09/25 04:09:22;;;;;;;8.90;4.30;;;12.50;99.90;;;;;;5021153;28;20173;-74
2023/09/25 04:11:48;;;;;;;7.43;5.22;;;12.40;99.90;;;;;;5017623;28;20212;-74
2023/09/25 04:14:14;;;;;;;5.88;4.68;;;12.40;99.90;;;;;;5020005;28;20695;-75
2023/09/25 04:16:39;;;;;;;7.00;4.67;;;12.40;99.90;;;;;;5015992;28;20216;-75
2023/09/25 04:19:05;;;;;;;7.93;5.28;;;12.40;99.90;;;;;;5018946;28;20240;-75
2023/09/25 04:21:31;;;;;;;5.83;4.53;;;12.40;99.90;;;;;;5020842;28;20202;-73
2023/09/25 04:23:57;;;;;;;8.05;4.38;;;12.30;99.90;;;;;;5018710;28;20212;-75
2023/09/25 04:26:24;;;;;;;5.80;4.00;;;12.30;99.90;;;;;;5021684;28;20235;-75
2023/09/25 04:28:49;;;;;;;7.57;5.20;;;12.30;99.90;;;;;;5016036;28;20209;-72
2023/09/25 04:31:15;;;;;;;7.80;5.20;;;12.30;99.90;;;;;;5019740;28;20214;-75
2023/09/25 04:33:40;;;;;;;7.50;5.10;;;12.30;99.90;;;;;;5016347;28;20524;-75
2023/09/25 04:36:10;;;;;;;8.38;4.88;;;12.30;99.90;;;;;;5020304;28;20881;-75
2023/09/25 04:38:36;;;;;;;7.30;5.00;;;12.30;99.90;;;;;;5017805;28;20658;-75
2023/09/25 04:41:03;;;;;;;6.82;4.70;;;12.30;99.90;;;;;;5018566;28;20212;-75
2023/09/25 04:43:28;;;;;;;7.45;4.55;;;12.30;99.90;;;;;;5020608;28;20209;-75
2023/09/25 04:45:58;;;;;;;8.27;5.27;;;12.30;99.90;;;;;;5019310;28;20223;-75
2023/09/25 04:48:23;;;;;;;9.07;5.57;;;12.30;99.90;;;;;;5019580;28;20534;-75
2023/09/25 04:50:49;;;;;;;8.27;5.40;;;12.30;99.90;;;;;;5017702;28;20215;-73
2023/09/25 04:53:15;;;;;;;7.97;4.53;;;12.20;99.90;;;;;;5013491;28;20209;-75
2023/09/25 04:55:41;;;;;;;8.43;4.50;;;12.30;99.90;;;;;;5018975;28;20255;-75
2023/09/25 04:58:07;;;;;;;7.60;5.07;;;12.30;99.90;;;;;;5018583;28;20216;-74
2023/09/25 05:00:33;;;;;;;7.50;4.77;;;12.40;99.90;;;;;;5020586;28;20671;-74
2023/09/25 05:03:00;;;;;;;9.57;5.30;;;12.30;99.90;;;;;;5018233;28;20193;-75
2023/09/25 05:05:26;;;;;;;8.70;5.78;;;12.40;99.90;;;;;;5021529;28;20288;-74
2023/09/25 05:07:55;;;;;;;7.72;5.30;;;12.40;99.90;;;;;;5021103;28;20204;-75
2023/09/25 05:10:23;;;;;;;5.95;4.65;;;12.40;99.90;;;;;;5020772;28;20202;-73
2023/09/25 05:12:49;;;;;;;6.10;4.53;;;12.50;99.90;;;;;;5017614;28;20251;-71
2023/09/25 05:15:16;;;;;;;9.88;5.32;;;12.50;99.90;;;;;;5017681;28;20165;-73
2023/09/25 05:17:43;;;;;;;7.70;4.90;;;12.50;99.90;;;;;;5024774;28;20204;-72
2023/09/25 05:20:11;;;;;;;8.63;4.87;;;12.50;99.90;;;;;;5021304;28;20212;-72
2023/09/25 05:22:40;;;;;;;6.35;4.43;;;12.50;99.90;;;;;;5023871;28;20726;-73
2023/09/25 05:25:08;;;;;;;9.47;5.67;;;12.50;99.90;;;;;;5021048;28;20675;-73
2023/09/25 05:27:35;;;;;;;9.63;6.80;;;12.60;99.90;;;;;;5024330;28;20174;-73
2023/09/25 05:30:02;;;;;;;7.63;5.78;;;12.70;99.90;;;;;;5020302;28;20801;-73
2023/09/25 05:32:27;;;;;;;5.50;4.47;;;12.70;99.90;;;;;;5018094;28;20232;-75
2023/09/25 05:34:54;;;;;;;7.32;4.93;;;12.80;99.90;;;;;;5021735;28;20612;-72
2023/09/25 05:37:19;;;;;;;7.35;4.90;;;12.80;99.90;;;;;;5024005;28;20730;-73
2023/09/25 05:39:45;;;;;;;6.95;4.53;;;12.80;99.90;;;;;;5024143;28;20172;-73
2023/09/25 05:42:11;;;;;;;6.78;4.68;;;13.00;99.90;;;;;;5022686;28;20387;-73
2023/09/25 05:44:36;;;;;;;7.20;5.00;;;13.00;99.90;;;;;;5023147;28;20928;-73
2023/09/25 05:47:02;;;;;;;8.35;4.72;;;13.00;99.90;;;;;;5021330;28;20209;-73
2023/09/25 05:49:28;;;;;;;9.70;4.90;;;13.20;99.90;;;;;;5021182;28;20212;-73
2023/09/25 05:51:54;;;;;;;5.95;4.38;;;13.30;99.90;;;;;;5024126;28;20694;-71
2023/09/25 05:54:22;;;;;;;7.05;4.35;;;13.70;99.90;;;;;;5021043;28;20180;-73
2023/09/25 05:56:48;;;;;;;6.30;3.80;;;15.40;99.90;;;;;;5008789;28;20208;-74
2023/09/25 05:59:15;;;;;;;4.82;4.10;;;16.80;99.90;;;;;;5020279;28;20209;-74
2023/09/25 06:01:40;;;;;;;4.60;3.35;;;18.10;99.90;;;;;;5016213;28;20251;-74
2023/09/25 06:04:06;;;;;;;3.85;3.10;;;19.50;99.90;;;;;;5020608;28;20221;-74
2023/09/25 06:06:35;;;;;;;4.95;3.28;;;20.60;99.90;;;;;;5023102;28;20179;-74
2023/09/25 06:09:02;;;;;;;6.15;4.28;;;20.50;99.90;;;;;;5021435;28;20228;-74
2023/09/25 06:11:28;;;;;;;4.15;3.55;;;20.40;99.90;;;;;;5022582;28;20248;-74
2023/09/25 06:13:54;;;;;;;4.55;3.33;;;21.40;99.90;;;;;;5021446;28;20235;-74
2023/09/25 06:16:19;;;;;;;6.18;4.13;;;21.60;99.90;;;;;;5020244;28;20213;-72
2023/09/25 06:18:47;;;;;;;5.63;4.18;;;22.30;99.90;;;;;;5019611;28;20548;-71
2023/09/25 06:21:13;;;;;;;5.68;4.05;;;22.40;99.90;;;;;;5021741;28;20201;-74
2023/09/25 06:23:39;;;;;;;4.93;3.83;;;21.00;99.90;;;;;;5022278;28;20213;-73
2023/09/25 06:26:09;;;;;;;5.32;3.88;;;21.40;99.90;;;;;;5021353;28;20304;-72
2023/09/25 06:28:34;;;;;;;4.55;3.88;;;21.50;99.90;;;;;;5019626;28;20209;-73
2023/09/25 06:31:01;;;;;;;8.23;4.68;;;21.60;99.90;;;;;;5022119;28;20219;-73
2023/09/25 06:33:28;;;;;;;4.72;3.72;;;22.40;99.90;;;;;;5019537;28;20887;-74
2023/09/25 06:35:54;;;;;;;10.32;4.25;;;23.00;99.90;;;;;;5022720;28;20302;-74
2023/09/25 06:38:20;;;;;;;4.38;3.78;;;23.10;99.90;;;;;;5018304;28;20288;-74
2023/09/25 06:40:46;;;;;;;6.53;4.25;;;22.90;99.90;;;;;;5023638;28;20212;-74
2023/09/25 06:43:13;;;;;;;5.53;4.18;;;22.70;99.90;;;;;;5018353;28;20255;-73
2023/09/25 06:45:39;;;;;;;4.63;3.90;;;22.60;99.90;;;;;;5023267;28;20550;-73
2023/09/25 06:48:05;;;;;;;5.82;3.95;;;22.50;99.90;;;;;;5020270;28;20242;-72
2023/09/25 06:50:31;;;;;;;10.32;4.18;;;22.90;99.90;;;;;;5021066;28;20350;-73
2023/09/25 06:52:57;;;;;;;6.90;4.05;;;23.30;99.90;;;;;;5019951;28;20295;-74
2023/09/25 06:55:23;;;;;;;5.10;3.88;;;23.60;99.90;;;;;;5021278;28;20223;-73
2023/09/25 06:57:49;;;;;;;6.93;4.40;;;22.80;99.90;;;;;;5020921;28;20177;-73
2023/09/25 07:00:15;;;;;;;4.45;3.80;;;23.60;99.90;;;;;;5020025;28;20200;-73
2023/09/25 07:02:40;;;;;;;4.50;3.65;;;23.70;99.90;;;;;;5021208;28;20212;-74
2023/09/25 07:05:06;;;;;;;6.45;4.00;;;24.90;99.90;;;;;;5019281;28;20201;-74
2023/09/25 07:07:32;;;;;;;4.45;3.80;;;24.30;99.90;;;;;;5018470;28;20197;-73
2023/09/25 07:09:58;;;;;;;4.35;3.95;;;23.90;99.90;;;;;;5021020;28;20216;-74
2023/09/25 07:12:24;;;;;;;6.13;4.20;;;23.80;99.90;;;;;;5017507;28;20687;-73
2023/09/25 07:14:55;;;;;;;7.55;4.03;;;24.70;99.90;;;;;;5022954;28;20200;-72
2023/09/25 07:17:22;;;;;;;7.25;3.88;;;25.30;99.90;;;;;;5018839;28;20224;-73
2023/09/25 07:19:51;;;;;;;5.22;3.75;;;24.70;99.90;;;;;;5023355;28;20208;-73
2023/09/25 07:22:17;;;;;;;5.20;4.03;;;25.20;99.90;;;;;;5016734;28;20213;-74
2023/09/25 07:24:43;;;;;;;5.47;4.03;;;24.40;99.90;;;;;;5021369;28;20177;-74
2023/09/25 07:27:09;;;;;;;6.63;3.80;;;24.50;99.90;;;;;;5017739;28;20177;-74
2023/09/25 07:29:36;;;;;;;5.25;3.95;;;24.20;99.90;;;;;;5021620;28;20745;-73
2023/09/25 07:32:03;;;;;;;4.97;4.00;;;23.90;99.90;;;;;;5018669;28;20208;-74
2023/09/25 07:34:29;;;;;;;5.95;4.78;;;24.30;99.90;;;;;;5021649;28;20215;-71
2023/09/25 07:36:55;;;;;;;4.22;3.50;;;24.30;99.90;;;;;;5017879;28;20235;-74
2023/09/25 07:39:22;;;;;;;4.45;3.83;;;24.70;99.90;;;;;;5021887;28;20196;-74
2023/09/25 07:41:51;;;;;;;8.88;4.38;;;23.50;99.90;;;;;;5018940;28;20223;-73
2023/09/25 07:44:16;;;;;;;7.95;5.55;;;23.90;99.90;;;;;;5018801;28;20205;-73
2023/09/25 07:46:47;;;;;;;7.50;3.65;;;23.70;99.90;;;;;;5020273;28;20300;-73
2023/09/25 07:49:13;;;;;;;9.20;3.83;;;23.10;99.90;;;;;;5019931;28;20291;-73
2023/09/25 07:51:39;;;;;;;5.03;3.35;;;23.30;99.90;;;;;;5018330;28;20197;-73
2023/09/25 07:54:05;;;;;;;4.90;3.35;;;23.10;99.90;;;;;;5021045;28;20226;-73
2023/09/25 07:56:31;;;;;;;8.95;4.63;;;23.60;99.90;;;;;;5017184;28;20596;-74
2023/09/25 07:58:56;;;;;;;6.78;3.53;;;22.60;99.90;;;;;;5021680;28;20200;-73
2023/09/25 08:01:25;;;;;;;6.97;3.17;;;22.80;99.90;;;;;;5018350;28;20263;-73
2023/09/25 08:03:53;;;;;;;5.25;3.00;;;23.00;99.90;;;;;;5019467;28;20300;-71
2023/09/25 08:06:21;;;;;;;4.78;2.65;;;22.90;99.90;;;;;;5019247;28;20185;-73
2023/09/25 08:08:46;;;;;;;5.00;3.40;;;22.90;99.90;;;;;;5021402;28;20232;-73
2023/09/25 08:11:15;;;;;;;4.78;3.20;;;22.40;99.90;;;;;;5018291;28;20243;-75
2023/09/25 08:13:41;;;;;;;3.90;3.30;;;22.20;99.90;;;;;;5020353;28;20208;-73
2023/09/25 08:16:07;;;;;;;6.43;3.38;;;22.40;99.90;;;;;;5016815;28;20225;-74
2023/09/25 08:18:33;;;;;;;4.63;3.35;;;22.40;99.90;;;;;;5014273;28;20209;-73
2023/09/25 08:20:59;;;;;;;3.90;3.40;;;23.60;99.90;;;;;;5020688;28;20552;-74
2023/09/25 08:23:26;;;;;;;3.70;2.83;;;24.10;99.90;;;;;;5018537;28;20216;-73
2023/09/25 08:25:51;;;;;;;4.00;3.05;;;23.50;99.90;;;;;;5021315;28;20585;-73
2023/09/25 08:28:18;;;;;;;9.68;4.18;;;23.60;99.90;;;;;;5017909;28;20208;-73
2023/09/25 08:30:44;;;;;;;5.70;3.63;;;23.70;99.90;;;;;;5020426;28;20243;-73
2023/09/25 08:33:10;;;;;;;4.50;3.00;;;24.30;99.90;;;;;;5016889;28;20678;-72
2023/09/25 08:35:36;;;;;;;6.03;3.78;;;24.30;99.90;;;;;;5019994;28;20208;-73
2023/09/25 08:38:02;;;;;;;5.40;3.00;;;25.00;99.90;;;;;;5020706;28;20205;-73
2023/09/25 08:40:30;;;;;;;5.00;2.70;;;24.90;99.90;;;;;;5018926;28;20730;-73
2023/09/25 08:42:56;;;;;;;5.13;3.25;;;24.50;99.90;;;;;;5024245;28;20226;-73
2023/09/25 08:45:22;;;;;;;3.25;2.65;;;24.00;99.90;;;;;;5023203;28;20185;-73
2023/09/25 08:47:48;;;;;;;5.30;3.50;;;23.90;99.90;;;;;;5023178;28;20579;-73
2023/09/25 08:50:14;;;;;;;3.75;2.90;;;23.20;99.90;;;;;;5022095;28;20212;-73
2023/09/25 08:52:41;;;;;;;3.95;3.30;;;22.30;99.90;;;;;;5024975;28;20212;-74
2023/09/25 08:55:08;;;;;;;5.43;3.90;;;22.20;99.90;;;;;;5016314;28;20239;-73
2023/09/25 08:57:37;;;;;;;4.30;2.88;;;21.70;99.90;;;;;;5020133;28;20594;-73
2023/09/25 09:00:14;;;;;;;6.40;3.08;;;22.40;99.90;;;;;;5013930;28;20180;-73
2023/09/25 09:02:40;;;;;;;3.60;2.17;;;22.00;99.90;;;;;;5017629;28;20209;-73
2023/09/25 09:05:09;;;;;;;5.43;3.03;;;21.80;99.90;;;;;;5020635;28;20663;-73
2023/09/25 09:07:34;;;;;;;3.33;2.38;;;22.00;99.90;;;;;;5021854;28;20576;-73
2023/09/25 09:10:00;;;;;;;5.05;2.75;;;22.40;99.90;;;;;;5023804;28;20233;-73
2023/09/25 09:12:25;;;;;;;3.63;2.83;;;22.40;99.90;;;;;;5020016;28;20576;-74
2023/09/25 09:14:51;;;;;;;4.07;2.83;;;22.00;99.90;;;;;;5025207;28;20282;-72
2023/09/25 09:17:17;;;;;;;3.55;2.85;;;21.20;99.90;;;;;;5021484;28;20223;-73
2023/09/25 09:19:45;;;;;;;3.75;2.30;;;20.80;99.90;;;;;;5024458;28;20228;-73
2023/09/25 09:22:16;;;;;;;4.47;3.15;;;21.10;99.90;;;;;;5020023;28;20719;-74
2023/09/25 09:24:43;;;;;;;4.38;2.55;;;21.30;99.90;;;;;;5024256;28;20199;-74
2023/09/25 09:27:11;;;;;;;4.60;2.40;;;21.70;99.90;;;;;;5022135;28;20209;-73
2023/09/25 09:29:38;;;;;;;3.38;2.70;;;21.40;99.90;;;;;;5024116;28;20200;-74
2023/09/25 09:32:05;;;;;;;3.00;2.28;;;21.90;99.90;;;;;;5020301;28;20208;-73
2023/09/25 09:34:31;;;;;;;5.95;2.85;;;22.40;99.90;;;;;;5016806;28;20216;-74
2023/09/25 09:36:57;;;;;;;5.47;2.83;;;22.70;99.90;;;;;;5023258;28;20248;-74
2023/09/25 09:39:25;;;;;;;3.75;2.67;;;22.70;99.90;;;;;;5022837;28;20219;-74
2023/09/25 09:41:52;;;;;;;5.00;2.70;;;22.10;99.90;;;;;;5024276;28;20574;-72
2023/09/25 09:44:19;;;;;;;4.95;2.55;;;22.10;99.90;;;;;;5021264;28;20717;-73
2023/09/25 09:46:50;;;;;;;3.72;3.17;;;22.10;99.90;;;;;;5022244;28;20211;-74
2023/09/25 09:49:22;;;;;;;4.07;3.47;;;22.10;99.90;;;;;;5022322;28;20259;-72
2023/09/25 09:51:50;;;;;;;4.53;3.17;;;22.50;99.90;;;;;;5022842;28;20201;-74
2023/09/25 09:54:18;;;;;;;4.10;2.85;;;21.90;99.90;;;;;;5022365;28;20173;-73
2023/09/25 09:56:49;;;;;;;3.25;2.80;;;22.00;99.90;;;;;;5021530;28;20205;-73
2023/09/25 09:59:16;;;;;;;6.45;3.78;;;22.30;99.90;;;;;;5021635;28;20213;-74
2023/09/25 10:01:47;;;;;;;3.75;2.83;;;22.50;99.90;;;;;;5021481;28;20216;-73
2023/09/25 10:04:15;;;;;;;3.78;2.50;;;22.60;99.90;;;;;;5020238;28;20592;-74
2023/09/25 10:07:04;;;;;;;4.97;2.97;;;22.70;99.90;;;;;;5023081;28;20222;-73
2023/09/25 10:09:31;;;;;;;3.03;2.17;;;22.60;99.90;;;;;;5017578;28;20267;-73
2023/09/25 10:11:58;;;;;;;4.57;2.55;;;22.80;99.90;;;;;;5022229;28;20276;-74
2023/09/25 10:14:25;;;;;;;3.35;2.75;;;22.60;99.90;;;;;;5021019;28;20295;-74
2023/09/25 10:17:05;;;;;;;7.07;2.85;;;22.70;99.90;;;;;;5021895;28;20227;-72
2023/09/25 10:19:47;;;;;;;5.32;3.72;;;22.40;99.90;;;;;;5020726;28;20239;-74
2023/09/25 10:22:29;;;;;;;5.07;2.47;;;22.70;99.90;;;;;;5018444;28;20212;-74
2023/09/25 10:25:10;;;;;;;4.63;2.08;;;22.80;99.90;;;;;;5022284;28;20227;-74
2023/09/25 10:27:36;;;;;;;4.47;2.33;;;23.00;99.90;;;;;;5019001;28;20177;-74
2023/09/25 10:30:14;;;;;;;3.97;2.05;;;22.80;99.90;;;;;;5024153;28;20606;-74
2023/09/25 10:32:41;;;;;;;3.50;2.20;;;22.70;99.90;;;;;;5020780;28;20217;-74
2023/09/25 10:35:38;;;;;;;4.82;2.22;;;23.40;99.90;;;;;;5020461;28;20212;-73
2023/09/25 10:38:08;;;;;;;3.55;2.78;;;23.00;99.90;;;;;;5019145;28;20216;-74
2023/09/25 10:40:36;;;;;;;3.47;2.30;;;23.10;99.90;;;;;;5021067;28;20212;-74
2023/09/25 10:43:02;;;;;;;3.40;2.17;;;23.00;99.90;;;;;;5020084;28;20301;-74
2023/09/25 10:45:28;;;;;;;4.15;3.28;;;22.80;99.90;;;;;;5020171;28;20173;-74
2023/09/25 10:47:53;;;;;;;4.47;2.88;;;22.70;99.90;;;;;;5020279;28;20258;-73
2023/09/25 10:50:19;;;;;;;2.58;2.33;;;22.40;99.90;;;;;;5022093;28;20215;-73
2023/09/25 10:52:44;;;;;;;2.25;2.05;;;22.20;99.90;;;;;;5018657;28;20219;-73
2023/09/25 10:55:10;;;;;;;3.38;2.13;;;22.00;99.90;;;;;;5023376;28;20219;-73
2023/09/25 10:57:36;;;;;;;2.55;2.00;;;22.10;99.90;;;;;;5017788;28;20628;-73
2023/09/25 11:00:09;;;;;;;3.83;3.00;;;22.20;99.90;;;;;;5023148;28;20180;-73
2023/09/25 11:02:35;;;;;;;4.72;3.55;;;22.50;99.90;;;;;;5017118;28;20609;-73
2023/09/25 11:05:02;;;;;;;5.80;2.33;;;22.30;99.90;;;;;;5019033;28;20242;-73
2023/09/25 11:07:29;;;;;;;5.43;2.00;;;22.30;99.90;;;;;;5019071;28;20217;-73
2023/09/25 11:09:55;;;;;;;3.25;1.73;;;22.50;99.90;;;;;;5021085;28;20216;-73
2023/09/25 11:12:21;;;;;;;2.38;2.00;;;22.10;99.90;;;;;;5018751;28;20200;-73
2023/09/25 11:14:47;;;;;;;2.22;1.90;;;22.40;99.90;;;;;;5021707;28;20212;-73
2023/09/25 11:17:13;;;;;;;5.18;1.95;;;22.20;99.90;;;;;;5020406;28;20223;-74
2023/09/25 11:19:45;;;;;;;2.08;1.65;;;22.30;99.90;;;;;;5020833;28;20247;-73
2023/09/25 11:22:11;;;;;;;2.28;1.63;;;22.20;99.90;;;;;;5018694;28;20220;-73
2023/09/25 11:24:37;;;;;;;3.85;1.70;;;22.40;99.90;;;;;;5018057;28;20180;-73
2023/09/25 11:27:09;;;;;;;1.83;1.40;;;22.30;99.90;;;;;;5021085;28;20187;-74
2023/09/25 11:29:37;;;;;;;2.85;1.77;;;22.50;99.90;;;;;;5018805;28;20204;-73
2023/09/25 11:32:04;;;;;;;4.85;1.90;;;22.80;99.90;;;;;;5013412;28;20222;-73
2023/09/25 11:34:30;;;;;;;4.68;2.08;;;23.00;99.90;;;;;;5014784;28;20212;-73
2023/09/25 11:36:58;;;;;;;6.18;2.13;;;22.90;99.90;;;;;;5014025;28;20720;-74
2023/09/25 11:39:24;;;;;;;5.22;2.00;;;22.50;99.90;;;;;;5020066;28;20203;-73
2023/09/25 11:41:50;;;;;;;1.63;1.50;;;22.40;99.90;;;;;;5019575;28;20225;-72
2023/09/25 11:44:16;;;;;;;2.15;1.52;;;22.50;99.90;;;;;;5019850;28;20261;-74
2023/09/25 11:46:42;;;;;;;4.88;1.77;;;22.80;99.90;;;;;;5019356;28;20224;-73
2023/09/25 11:49:08;;;;;;;2.92;1.60;;;22.80;99.90;;;;;;5024759;28;20216;-73
2023/09/25 11:51:33;;;;;;;2.08;1.55;;;22.70;99.90;;;;;;5016980;28;20197;-72
2023/09/25 11:53:59;;;;;;;4.72;1.58;;;22.60;99.90;;;;;;5023539;28;20176;-73
2023/09/25 11:56:25;;;;;;;2.03;1.75;;;22.80;99.90;;;;;;5018199;28;20213;-73
2023/09/25 11:58:50;;;;;;;3.63;1.70;;;22.70;99.90;;;;;;5021686;28;20257;-73
2023/09/25 12:01:16;;;;;;;5.60;1.63;;;22.50;99.90;;;;;;5018002;28;20275;-73
2023/09/25 12:03:42;;;;;;;3.80;1.38;;;22.50;99.90;;;;;;5016114;28;20188;-73
2023/09/25 12:06:08;;;;;;;2.75;1.88;;;22.60;99.90;;;;;;5021355;28;20188;-73
2023/09/25 12:08:33;;;;;;;4.93;1.73;;;22.30;99.90;;;;;;5019900;28;20301;-73
2023/09/25 12:10:59;;;;;;;4.15;1.48;;;22.30;99.90;;;;;;5019695;28;20213;-74
2023/09/25 12:13:25;;;;;;;2.88;1.60;;;22.40;99.90;;;;;;5019392;28;20223;-73
2023/09/25 12:15:51;;;;;;;2.55;1.90;;;22.50;99.90;;;;;;5021238;28;20221;-72
2023/09/25 12:18:16;;;;;;;2.08;1.65;;;22.50;99.90;;;;;;5025834;28;20183;-73
2023/09/25 12:20:43;;;;;;;4.22;1.83;;;22.50;99.90;;;;;;5022417;28;20212;-73
2023/09/25 12:23:09;;;;;;;2.45;1.80;;;22.40;99.90;;;;;;5024229;28;20219;-74
2023/09/25 12:25:35;;;;;;;4.75;1.95;;;22.50;99.90;;;;;;5019549;28;20222;-73
2023/09/25 12:28:02;;;;;;;2.97;2.00;;;22.50;99.90;;;;;;5024304;28;20291;-72
2023/09/25 12:30:28;;;;;;;4.18;1.80;;;22.60;99.90;;;;;;5023142;28;20184;-73
2023/09/25 12:32:53;;;;;;;2.33;1.70;;;22.80;99.90;;;;;;5021575;28;20573;-72
2023/09/25 12:35:19;;;;;;;2.33;1.90;;;22.90;99.90;;;;;;5022209;28;20204;-73
2023/09/25 12:37:46;;;;;;;2.45;1.80;;;22.50;99.90;;;;;;5021543;28;20605;-74
2023/09/25 12:40:13;;;;;;;4.53;1.90;;;22.40;99.90;;;;;;5024427;28;20266;-73
2023/09/25 12:42:40;;;;;;;3.08;2.17;;;22.20;99.90;;;;;;5021388;28;20219;-73